Aérodrome :
LOGIN :

S'inscrire | Disclaimer

   EN    FR    IT 

 










Légende :    VFR   VFR Marginal   IFR   IFR Intensif   IFR Très Intensif
Visi : 
Plafond : 
>= 8 km
>= 3000ft
5 à 8 km
1000 à 3000 ft
1500m à 5 km
500 à 1000 ft
800 à 1500m
200 à 500 ft
< 800m
< 200 ft
Symboles :   Orages  Brouillard  Fortes neiges  Fortes précipitations  Vent > 20 kt
SIGMETs :   Divers  Orages  Givrage  Turbulence  Onde Orograph.  Cendres Volcan.






- Altitude de l'aérodrome : 135 ft
- Code IATA : BOJ


LBBG - Burgas

DERNIER METAR :
  • 121100Z 12010KT 9000 SCT009 19/16 Q1018 NOSIG

METARs EXPIRÉS :
  • 121030Z 12011KT 9000 FEW011 19/16 Q1018 NOSIG
  • 121000Z 07010KT 9000 FEW011 19/15 Q1019 NOSIG
  • 120930Z 11009KT 9000 FEW008 SCT015 18/16 Q1019 NOSIG
  • 120900Z 11007KT 9000 FEW009 SCT015 19/16 Q1020 NOSIG
  • 120830Z 12007KT 8000 FEW007 SCT015 19/16 Q1020 NOSIG

TAF TAF LBBG
Valide du 12 à 06h jusqu'au 13 à 06h UTC


120500Z 1206/1306 06010KT 5000 BR SCT015
TEMPO 1206/1207 1500 BR BKN010
BECMG 1208/1210 12012KT 9999 SCT040
BECMG 1220/1222 VRB04KT
TEMPO 1301/1306 3000 BR SCT010
PROB40 1302/1306 0800 BCFG BKN005



MET'MAP, la Météo Aéronautique d'un coup d'oeil ! - Copyright ORBIFLY Décembre 2007 - Disclaimer

ORBIFLY MET'MAP TEAM :

Programmation & Développement : Alexandra Zaïnal
Conception & Développement : Baudouin d'Aumeries
Co-Programmation & Développement : Marc-Olivier Méhu
Soutien technique & logistique : Manuel Goepfert

Contact : metmap@orbifly.com




SOURCES & CREDITS :

   NOAA